Terminal Aerodrome Forecast
Issued by NWS

Home | Current Version | Previous Version | Text Only | Print | Product List | Glossary On
Versions: 1 2 3 4 5 6 7 8 9 10 11 12 13 14 15 16 17
217
FTAK31 PAJN 202331
TAFAPG
TAF
PAPG 202331Z 2100/2124 28005KT P6SM BKN030
     FM210200 05005KT P6SM SKC
      AMD LTD TO CLD VIS AND WIND 2106/2115=

USA.gov is the U.S. government's official web portal to all federal, state and local government web resources and services.